Time;durP1;ratioP1;P1;durP2;ratioP2;P2;SDS_P1;SDS_P2;PMS_P1;PMS_P2;Temp;Humidity;BMP_temperature;BMP_pressure;BME280_temperature;BME280_humidity;BME280_pressure;Samples;Min_cycle;Max_cycle;Signal;HPM_P1;HPM_P2
2022/01/13 00:01:54;;;;;;;;;;;;;;;9.22;70.16;104213.94;5064444;28;19962;-83
2022/01/13 00:04:20;;;;;;;;;;;;;;;10.22;68.42;104211.31;5082763;28;20387;-84
2022/01/13 00:06:45;;;;;;;;;;;;;;;10.26;67.23;104213.16;5063015;28;20009;-83
2022/01/13 00:09:11;;;;;;;;;;;;;;;9.70;67.42;104215.38;5081075;28;19924;-84
2022/01/13 00:11:36;;;;;;;;;;;;;;;9.55;69.63;104218.81;5081017;28;19931;-84
2022/01/13 00:16:56;;;;;;;;;;;;;;;10.03;67.13;104208.47;5080768;28;19955;-81
2022/01/13 00:19:33;;;;;;;;;;;;;;;9.46;68.83;104204.31;5081159;28;19959;-83
2022/01/13 00:22:16;;;;;;;;;;;;;;;10.27;66.58;104210.47;5063534;28;19917;-83
2022/01/13 00:24:44;;;;;;;;;;;;;;;9.57;70.60;104216.13;5082100;28;19917;-83
2022/01/13 00:27:12;;;;;;;;;;;;;;;10.03;68.64;104204.88;5081750;28;19923;-84
2022/01/13 00:29:40;;;;;;;;;;;;;;;10.42;66.04;104208.81;5062808;28;19924;-84
2022/01/13 00:32:06;;;;;;;;;;;;;;;11.03;63.43;104208.25;5063349;28;19916;-84
2022/01/13 00:34:31;;;;;;;;;;;;;;;10.03;66.89;104218.41;5063808;28;19916;-84
2022/01/13 00:36:58;;;;;;;;;;;;;;;10.25;67.84;104208.63;5063634;28;19917;-84
2022/01/13 00:39:23;;;;;;;;;;;;;;;9.76;68.18;104198.31;5080910;28;20279;-83
2022/01/13 00:41:49;;;;;;;;;;;;;;;10.27;66.90;104205.06;5063918;28;19924;-84
2022/01/13 00:44:19;;;;;;;;;;;;;;;10.49;64.38;104205.25;5063339;28;19921;-84
2022/01/13 00:46:46;;;;;;;;;;;;;;;10.58;66.11;104194.50;5063763;28;19917;-83
2022/01/13 00:49:12;;;;;;;;;;;;;;;10.52;66.18;104199.84;5080924;28;19916;-84
2022/01/13 00:51:38;;;;;;;;;;;;;;;10.48;64.60;104197.09;5063312;28;19916;-84
2022/01/13 00:54:05;;;;;;;;;;;;;;;10.29;65.64;104208.66;5063014;28;19913;-83
2022/01/13 00:56:32;;;;;;;;;;;;;;;10.97;64.78;104219.97;5062148;28;19923;-84
2022/01/13 00:58:58;;;;;;;;;;;;;;;10.50;64.12;104222.41;5062180;28;20007;-84
2022/01/13 01:01:23;;;;;;;;;;;;;;;11.28;62.81;104220.13;5063146;28;20404;-84
2022/01/13 01:03:48;;;;;;;;;;;;;;;10.67;63.79;104222.50;5065079;28;20007;-82
2022/01/13 01:06:13;;;;;;;;;;;;;;;11.22;61.40;104224.59;5067459;28;19976;-84
2022/01/13 01:08:39;;;;;;;;;;;;;;;10.99;62.80;104215.47;5066862;28;19983;-85
2022/01/13 01:11:05;;;;;;;;;;;;;;;11.26;62.70;104224.63;5066832;28;19947;-83
2022/01/13 01:13:32;;;;;;;;;;;;;;;10.59;63.89;104226.06;5065262;28;19964;-83
2022/01/13 01:16:00;;;;;;;;;;;;;;;11.66;61.38;104223.84;5085072;28;19916;-84
2022/01/13 01:26:36;;;;;;;;;;;;;;;9.36;70.32;104233.00;5084804;28;19984;-84
2022/01/13 01:31:31;;;;;;;;;;;;;;;10.64;66.32;104224.31;5084685;28;19949;-84
2022/01/13 01:34:26;;;;;;;;;;;;;;;10.30;65.89;104220.44;5066211;28;20029;-84
2022/01/13 01:36:52;;;;;;;;;;;;;;;10.82;64.65;104230.72;5084230;28;19957;-83
2022/01/13 01:39:18;;;;;;;;;;;;;;;10.70;64.60;104238.78;5083588;28;19916;-82
2022/01/13 01:41:44;;;;;;;;;;;;;;;9.34;67.68;104235.69;5066207;28;19974;-84
2022/01/13 01:44:10;;;;;;;;;;;;;;;10.26;64.59;104232.13;5062636;28;19920;-84
2022/01/13 01:46:38;;;;;;;;;;;;;;;10.50;65.85;104233.25;5062087;28;19916;-83
2022/01/13 01:49:14;;;;;;;;;;;;;;;10.45;66.07;104225.09;5062270;28;19940;-83
2022/01/13 01:51:39;;;;;;;;;;;;;;;9.81;67.36;104226.28;5063765;28;19923;-82
2022/01/13 01:54:04;;;;;;;;;;;;;;;9.57;70.62;104225.16;5061362;28;19913;-84
2022/01/13 01:56:29;;;;;;;;;;;;;;;10.28;68.01;104222.19;5063163;28;19968;-84
2022/01/13 01:59:00;;;;;;;;;;;;;;;10.02;67.03;104224.69;5062613;28;20388;-84
2022/01/13 02:01:25;;;;;;;;;;;;;;;10.74;64.89;104222.56;5062499;28;19921;-84
2022/01/13 02:03:50;;;;;;;;;;;;;;;10.48;66.73;104225.09;5062554;28;19927;-83
2022/01/13 02:06:16;;;;;;;;;;;;;;;10.22;66.95;104233.91;5062310;28;19947;-82
2022/01/13 02:08:41;;;;;;;;;;;;;;;9.81;69.85;104230.78;5062702;28;19917;-83
2022/01/13 02:11:08;;;;;;;;;;;;;;;9.02;70.32;104230.78;5062153;28;19924;-83
2022/01/13 02:13:34;;;;;;;;;;;;;;;10.10;69.41;104228.38;5062937;28;20049;-81
2022/01/13 02:18:24;;;;;;;;;;;;;;;9.62;69.89;104214.41;5064882;28;19976;-85
2022/01/13 02:20:51;;;;;;;;;;;;;;;9.72;70.76;104209.97;5063045;28;20333;-83
2022/01/13 02:23:29;;;;;;;;;;;;;;;9.91;69.73;104206.56;5062122;28;20362;-83
2022/01/13 02:25:54;;;;;;;;;;;;;;;10.09;67.37;104216.63;5062932;28;19924;-83
2022/01/13 02:28:19;;;;;;;;;;;;;;;10.02;68.59;104208.47;5062456;28;19916;-84
2022/01/13 02:30:45;;;;;;;;;;;;;;;9.27;69.58;104212.19;5061366;28;19932;-84
2022/01/13 02:33:10;;;;;;;;;;;;;;;9.55;70.94;104201.69;5062604;28;20015;-84
2022/01/13 02:35:35;;;;;;;;;;;;;;;10.80;64.49;104200.94;5062810;28;19959;-83
2022/01/13 02:38:01;;;;;;;;;;;;;;;10.90;65.02;104193.78;5062725;28;19917;-83
2022/01/13 02:40:26;;;;;;;;;;;;;;;10.84;64.76;104182.91;5063362;28;19982;-84
2022/01/13 02:42:51;;;;;;;;;;;;;;;9.61;68.42;104182.84;5061492;28;19924;-83
2022/01/13 02:45:20;;;;;;;;;;;;;;;10.39;65.73;104179.03;5062344;28;20381;-83
2022/01/13 02:50:11;;;;;;;;;;;;;;;11.39;63.58;104179.47;5063882;28;19917;-84
2022/01/13 02:52:37;;;;;;;;;;;;;;;10.97;65.37;104176.63;5062648;28;19917;-84
2022/01/13 02:55:03;;;;;;;;;;;;;;;10.15;67.56;104172.50;5062810;28;19916;-84
2022/01/13 02:57:28;;;;;;;;;;;;;;;10.17;67.78;104175.22;5062251;28;19988;-84
2022/01/13 02:59:53;;;;;;;;;;;;;;;10.78;64.58;104170.22;5063328;28;20028;-85
2022/01/13 03:02:19;;;;;;;;;;;;;;;10.21;69.56;104175.25;5062131;28;19923;-85
2022/01/13 03:04:45;;;;;;;;;;;;;;;10.91;65.16;104178.41;5060853;28;19940;-83
2022/01/13 03:07:10;;;;;;;;;;;;;;;9.94;69.79;104174.13;5062049;28;19968;-84
2022/01/13 03:09:35;;;;;;;;;;;;;;;9.90;69.28;104172.31;5061038;28;19963;-83
2022/01/13 03:12:00;;;;;;;;;;;;;;;10.51;66.91;104173.69;5061347;28;19943;-84
2022/01/13 03:14:26;;;;;;;;;;;;;;;9.80;71.33;104181.22;5060867;28;19916;-83
2022/01/13 03:16:51;;;;;;;;;;;;;;;10.84;66.94;104171.16;5061038;28;20011;-84
2022/01/13 03:19:16;;;;;;;;;;;;;;;10.45;65.85;104165.53;5059897;28;20007;-84
2022/01/13 03:21:41;;;;;;;;;;;;;;;10.31;66.97;104169.91;5061358;28;19917;-85
2022/01/13 03:24:10;;;;;;;;;;;;;;;11.25;64.97;104168.59;5062276;28;19924;-83
2022/01/13 03:26:36;;;;;;;;;;;;;;;11.20;63.87;104166.78;5061429;28;20393;-84
2022/01/13 03:29:15;;;;;;;;;;;;;;;10.23;66.76;104170.75;5061338;28;19917;-84
2022/01/13 03:31:40;;;;;;;;;;;;;;;11.20;64.24;104159.53;5060143;28;19917;-84
2022/01/13 03:34:06;;;;;;;;;;;;;;;11.08;64.07;104162.22;5060188;28;19959;-83
2022/01/13 03:36:32;;;;;;;;;;;;;;;10.36;65.28;104154.66;5059824;28;20341;-85
2022/01/13 03:38:57;;;;;;;;;;;;;;;10.16;66.01;104160.81;5058856;28;19917;-84
2022/01/13 03:41:23;;;;;;;;;;;;;;;9.98;69.85;104163.34;5060213;28;20302;-83
2022/01/13 03:43:51;;;;;;;;;;;;;;;9.51;71.43;104156.59;5059823;28;20062;-84
2022/01/13 03:46:17;;;;;;;;;;;;;;;10.28;69.69;104158.19;5060817;28;19917;-83
2022/01/13 03:48:43;;;;;;;;;;;;;;;10.14;69.00;104149.03;5060640;28;19917;-84
2022/01/13 03:51:08;;;;;;;;;;;;;;;8.92;74.20;104149.63;5060677;28;19956;-84
2022/01/13 03:54:05;;;;;;;;;;;;;;;10.21;69.47;104150.91;5060909;28;20294;-83
2022/01/13 03:56:54;;;;;;;;;;;;;;;9.79;69.76;104152.38;5059850;28;19924;-84
2022/01/13 03:59:31;;;;;;;;;;;;;;;9.37;73.58;104149.25;5040988;28;20012;-83
2022/01/13 04:01:59;;;;;;;;;;;;;;;10.31;69.50;104150.97;5060292;28;19924;-83
2022/01/13 04:04:25;;;;;;;;;;;;;;;10.69;65.44;104158.44;5061194;28;19932;-84
2022/01/13 04:07:02;;;;;;;;;;;;;;;10.66;66.90;104151.22;5059555;28;19924;-84
2022/01/13 04:09:33;;;;;;;;;;;;;;;9.77;70.95;104162.28;5059512;28;19967;-83
2022/01/13 04:12:03;;;;;;;;;;;;;;;11.21;65.08;104152.34;5059999;28;19925;-83
2022/01/13 04:14:37;;;;;;;;;;;;;;;11.16;63.85;104152.31;5059999;28;19952;-82
2022/01/13 04:17:02;;;;;;;;;;;;;;;10.97;65.99;104156.75;5059898;28;19956;-84
2022/01/13 04:19:27;;;;;;;;;;;;;;;10.28;67.23;104158.19;5060192;28;19928;-83
2022/01/13 04:21:52;;;;;;;;;;;;;;;9.53;72.97;104150.31;5060355;28;19921;-84
2022/01/13 04:24:18;;;;;;;;;;;;;;;10.35;68.56;104152.84;5060851;28;20302;-83
2022/01/13 04:26:44;;;;;;;;;;;;;;;10.36;67.72;104147.44;5059325;28;19970;-84
2022/01/13 04:31:35;;;;;;;;;;;;;;;10.33;67.67;104143.78;5061630;28;19939;-84
2022/01/13 04:34:01;;;;;;;;;;;;;;;10.66;66.72;104147.59;5058720;28;19916;-83
2022/01/13 04:36:26;;;;;;;;;;;;;;;10.00;68.20;104148.03;5059966;28;20278;-83
2022/01/13 04:38:52;;;;;;;;;;;;;;;9.74;69.36;104154.13;5059359;28;20441;-84
2022/01/13 04:41:28;;;;;;;;;;;;;;;10.84;65.93;104153.13;5059512;28;20377;-84
2022/01/13 04:43:53;;;;;;;;;;;;;;;11.18;63.93;104153.22;5059469;28;19931;-84
2022/01/13 04:46:21;;;;;;;;;;;;;;;10.85;63.62;104165.72;5059295;28;20120;-84
2022/01/13 04:48:46;;;;;;;;;;;;;;;11.08;63.74;104152.31;5060577;28;19925;-84
2022/01/13 04:51:11;;;;;;;;;;;;;;;10.57;66.41;104143.94;5060425;28;19917;-85
2022/01/13 04:53:36;;;;;;;;;;;;;;;10.66;66.31;104147.59;5059749;28;19917;-84
2022/01/13 04:56:09;;;;;;;;;;;;;;;10.31;67.47;104146.47;5059963;28;20259;-83
2022/01/13 04:58:34;;;;;;;;;;;;;;;9.86;69.38;104140.72;5058863;28;19921;-84
2022/01/13 05:00:59;;;;;;;;;;;;;;;10.84;67.17;104141.34;5060267;28;20377;-83
2022/01/13 05:03:25;;;;;;;;;;;;;;;10.89;66.50;104142.28;5059115;28;20337;-83
2022/01/13 05:05:50;;;;;;;;;;;;;;;10.99;65.42;104142.34;5060564;28;19963;-83
2022/01/13 05:08:15;;;;;;;;;;;;;;;10.24;68.84;104150.91;5059769;28;19976;-83
2022/01/13 05:10:40;;;;;;;;;;;;;;;9.81;68.72;104146.97;5059017;28;20383;-82
2022/01/13 05:13:09;;;;;;;;;;;;;;;11.17;64.11;104146.91;5058354;28;20437;-83
2022/01/13 05:15:36;;;;;;;;;;;;;;;11.68;61.94;104141.59;5059874;28;19932;-83
2022/01/13 05:18:14;;;;;;;;;;;;;;;11.15;63.86;104154.09;5059637;28;19917;-84
2022/01/13 05:20:42;;;;;;;;;;;;;;;11.09;64.75;104154.09;5060928;28;19932;-84
2022/01/13 05:23:09;;;;;;;;;;;;;;;11.40;63.21;104150.56;5059323;28;19917;-83
2022/01/13 05:25:34;;;;;;;;;;;;;;;11.24;63.82;104155.06;5059507;28;19980;-84
2022/01/13 05:28:00;;;;;;;;;;;;;;;11.72;62.42;104157.84;5059649;28;19955;-84
2022/01/13 05:30:25;;;;;;;;;;;;;;;11.61;61.83;104156.03;5059502;28;19943;-83
2022/01/13 05:32:53;;;;;;;;;;;;;;;10.88;64.92;104154.03;5041374;28;19959;-83
2022/01/13 05:35:19;;;;;;;;;;;;;;;11.63;63.25;104147.91;5075186;28;19917;-84
2022/01/13 05:37:45;;;;;;;;;;;;;;;10.73;65.34;104155.75;5059862;28;19940;-85
2022/01/13 05:40:11;;;;;;;;;;;;;;;10.62;66.85;104152.09;5059060;28;19917;-86
2022/01/13 05:42:36;;;;;;;;;;;;;;;11.08;65.46;104141.47;5061621;28;19970;-86
2022/01/13 05:45:03;;;;;;;;;;;;;;;10.53;67.54;104139.41;5065124;28;19968;-86
2022/01/13 05:47:28;;;;;;;;;;;;;;;10.84;66.13;104144.06;5063808;28;19984;-84
2022/01/13 05:49:53;;;;;;;;;;;;;;;11.66;62.73;104137.94;5062648;28;19959;-84
2022/01/13 05:52:19;;;;;;;;;;;;;;;11.13;64.96;104133.34;5066106;28;19916;-86
2022/01/13 05:54:44;;;;;;;;;;;;;;;10.95;65.96;104142.31;5083982;28;19923;-87
2022/01/13 05:57:09;;;;;;;;;;;;;;;10.90;65.40;104139.59;5066778;28;19923;-83
2022/01/13 05:59:35;;;;;;;;;;;;;;;11.37;65.73;104146.06;5066808;28;19916;-84
2022/01/13 06:02:01;;;;;;;;;;;;;;;11.35;64.08;104143.34;5067086;28;20380;-84
2022/01/13 06:04:27;;;;;;;;;;;;;;;11.80;63.66;104153.31;5066545;28;19923;-84
2022/01/13 06:06:52;;;;;;;;;;;;;;;10.61;67.56;104156.63;5065681;28;19923;-83
2022/01/13 06:09:17;;;;;;;;;;;;;;;10.26;70.13;104148.22;5084159;28;19916;-84
2022/01/13 06:11:52;;;;;;;;;;;;;;;10.62;68.68;104146.69;5067114;28;19925;-85
2022/01/13 06:14:17;;;;;;;;;;;;;;;11.05;66.54;104146.88;5067130;28;20003;-85
2022/01/13 06:16:42;;;;;;;;;;;;;;;10.85;67.38;104146.78;5066281;28;19951;-85
2022/01/13 06:19:07;;;;;;;;;;;;;;;11.18;66.66;104153.22;5065624;28;19911;-84
2022/01/13 06:21:33;;;;;;;;;;;;;;;9.89;71.03;104145.25;5065909;28;19916;-86
2022/01/13 06:23:58;;;;;;;;;;;;;;;10.88;69.98;104143.19;5082257;28;19921;-84
2022/01/13 06:26:23;;;;;;;;;;;;;;;11.57;66.13;104139.75;5064213;28;19934;-86
2022/01/13 06:28:48;;;;;;;;;;;;;;;11.29;65.76;104146.03;5063889;28;19923;-85
2022/01/13 06:31:14;;;;;;;;;;;;;;;10.34;70.16;104151.00;5080560;28;19962;-85
2022/01/13 06:33:39;;;;;;;;;;;;;;;11.98;63.38;104147.94;5062903;28;19917;-85
2022/01/13 06:36:04;;;;;;;;;;;;;;;10.76;67.91;104149.44;5060737;28;20008;-85
2022/01/13 06:38:33;;;;;;;;;;;;;;;10.86;67.66;104147.69;5059970;28;19924;-85
2022/01/13 06:40:58;;;;;;;;;;;;;;;10.51;68.90;104151.09;5062146;28;19956;-86
2022/01/13 06:43:23;;;;;;;;;;;;;;;10.50;70.16;104152.91;5061570;28;20366;-86
2022/01/13 06:45:59;;;;;;;;;;;;;;;10.13;71.30;104146.31;5081553;28;20401;-87
2022/01/13 06:48:25;;;;;;;;;;;;;;;9.97;71.70;104156.13;5083573;28;19921;-85
2022/01/13 06:50:50;;;;;;;;;;;;;;;9.78;72.69;104152.34;5062631;28;19924;-85
2022/01/13 06:53:15;;;;;;;;;;;;;;;11.44;66.83;104146.97;5061271;28;20427;-85
2022/01/13 06:55:40;;;;;;;;;;;;;;;9.69;73.05;104146.00;5077233;28;19962;-84
2022/01/13 06:58:06;;;;;;;;;;;;;;;10.58;70.89;104153.88;5059848;28;19916;-84
2022/01/13 07:00:33;;;;;;;;;;;;;;;10.35;70.27;104142.00;5078582;28;19962;-87
2022/01/13 07:02:59;;;;;;;;;;;;;;;10.04;70.58;104158.91;5078764;28;19913;-87
2022/01/13 07:05:24;;;;;;;;;;;;;;;10.21;72.55;104155.41;5061206;28;20012;-89
2022/01/13 07:07:49;;;;;;;;;;;;;;;10.05;72.41;104159.78;5061158;28;19951;-85
2022/01/13 07:10:15;;;;;;;;;;;;;;;9.94;73.06;104157.91;5061489;28;19924;-84
2022/01/13 07:12:40;;;;;;;;;;;;;;;10.02;72.26;104149.84;5061601;28;19924;-86
2022/01/13 07:15:06;;;;;;;;;;;;;;;10.10;72.96;104149.94;5079035;28;19920;-85
2022/01/13 07:17:32;;;;;;;;;;;;;;;10.08;71.70;104152.63;5060557;28;20389;-84
2022/01/13 07:19:57;;;;;;;;;;;;;;;10.55;70.27;104150.25;5080065;28;20020;-84
2022/01/13 07:22:22;;;;;;;;;;;;;;;10.57;70.62;104153.88;5062469;28;19924;-85
2022/01/13 07:24:48;;;;;;;;;;;;;;;11.20;66.47;104139.69;5079578;28;19978;-86
2022/01/13 07:27:14;;;;;;;;;;;;;;;10.26;70.17;104150.94;5060320;28;19932;-84
2022/01/13 07:29:42;;;;;;;;;;;;;;;11.40;66.78;104140.63;5062019;28;19916;-85
2022/01/13 07:32:08;;;;;;;;;;;;;;;10.43;70.13;104146.59;5060649;28;19916;-83
2022/01/13 07:34:33;;;;;;;;;;;;;;;11.03;70.20;104145.06;5059976;28;19938;-83
2022/01/13 07:36:58;;;;;;;;;;;;;;;10.20;71.70;104148.19;5061056;28;19924;-84
2022/01/13 07:39:23;;;;;;;;;;;;;;;10.89;69.24;104156.72;5077274;28;20449;-84
2022/01/13 07:41:49;;;;;;;;;;;;;;;10.74;70.50;104160.28;5078966;28;20431;-85
2022/01/13 07:44:15;;;;;;;;;;;;;;;10.42;71.18;104155.59;5077417;28;19920;-84
2022/01/13 07:46:40;;;;;;;;;;;;;;;10.54;71.43;104164.69;5059242;28;19916;-84
2022/01/13 07:49:05;;;;;;;;;;;;;;;11.60;67.05;104166.88;5057766;28;20019;-84
2022/01/13 07:51:31;;;;;;;;;;;;;;;10.97;69.17;104165.78;5074726;28;19959;-84
2022/01/13 07:53:56;;;;;;;;;;;;;;;11.55;67.03;104172.31;5059900;28;19956;-83
2022/01/13 07:56:22;;;;;;;;;;;;;;;10.58;70.47;104174.63;5059946;28;19916;-84
2022/01/13 07:58:47;;;;;;;;;;;;;;;9.78;75.05;104179.41;5059754;28;19916;-84
2022/01/13 08:01:12;;;;;;;;;;;;;;;10.30;73.34;104182.53;5077162;28;19913;-83
2022/01/13 08:03:38;;;;;;;;;;;;;;;11.23;68.82;104173.13;5060092;28;19916;-84
2022/01/13 08:06:04;;;;;;;;;;;;;;;11.14;68.56;104179.41;5058708;28;19920;-86
2022/01/13 08:08:30;;;;;;;;;;;;;;;11.24;68.98;104172.22;5077745;28;20378;-84
2022/01/13 08:10:55;;;;;;;;;;;;;;;11.95;65.80;104172.34;5059642;28;20023;-85
2022/01/13 08:13:21;;;;;;;;;;;;;;;11.06;67.52;104181.19;5059769;28;19931;-84
2022/01/13 08:15:51;;;;;;;;;;;;;;;10.88;69.56;104181.09;5077551;28;19916;-84
2022/01/13 08:21:00;;;;;;;;;;;;;;;10.38;69.94;104177.22;5078247;28;19962;-85
2022/01/13 08:23:25;;;;;;;;;;;;;;;10.23;71.56;104180.69;5059381;28;19924;-83
2022/01/13 08:25:50;;;;;;;;;;;;;;;11.29;68.42;104178.56;5059125;28;19970;-84
2022/01/13 08:28:16;;;;;;;;;;;;;;;10.98;70.03;104174.84;5077172;28;19940;-84
2022/01/13 08:30:41;;;;;;;;;;;;;;;10.88;71.21;104176.59;5059371;28;19924;-85
2022/01/13 08:33:06;;;;;;;;;;;;;;;10.31;71.53;104188.84;5059833;28;19916;-85
2022/01/13 08:35:31;;;;;;;;;;;;;;;10.51;71.41;104176.41;5076835;28;19923;-83
2022/01/13 08:38:04;;;;;;;;;;;;;;;11.65;67.46;104182.22;5058098;28;19923;-83
2022/01/13 08:40:32;;;;;;;;;;;;;;;11.07;70.82;104187.53;5057814;28;19916;-82
2022/01/13 08:42:57;;;;;;;;;;;;;;;11.70;65.78;104193.13;5057619;28;19931;-83
2022/01/13 08:45:22;;;;;;;;;;;;;;;10.63;69.13;104194.53;5059047;28;19917;-82
2022/01/13 08:47:47;;;;;;;;;;;;;;;11.65;67.43;104184.06;5075888;28;19923;-81
2022/01/13 08:50:13;;;;;;;;;;;;;;;11.87;66.29;104187.72;5057218;28;19939;-82
2022/01/13 08:52:38;;;;;;;;;;;;;;;11.74;65.24;104192.19;5057579;28;20087;-83
2022/01/13 08:55:05;;;;;;;;;;;;;;;10.02;72.98;104197.63;5058170;28;19920;-82
2022/01/13 08:57:30;;;;;;;;;;;;;;;10.93;70.59;104193.78;5075075;28;20384;-84
2022/01/13 08:59:55;;;;;;;;;;;;;;;11.37;69.09;104193.91;5075526;28;19916;-83
2022/01/13 09:02:21;;;;;;;;;;;;;;;11.86;66.11;104197.63;5058461;28;20007;-82
2022/01/13 09:04:46;;;;;;;;;;;;;;;10.98;67.89;104201.94;5059765;28;20019;-84
2022/01/13 09:07:11;;;;;;;;;;;;;;;11.24;67.40;104198.41;5061757;28;19916;-86
2022/01/13 09:09:36;;;;;;;;;;;;;;;11.15;68.52;104197.47;5060892;28;19916;-84
2022/01/13 09:12:02;;;;;;;;;;;;;;;12.12;64.93;104198.59;5060911;28;20011;-84
2022/01/13 09:14:29;;;;;;;;;;;;;;;10.87;70.30;104206.38;5057878;28;19917;-84
2022/01/13 09:16:54;;;;;;;;;;;;;;;11.21;68.45;104199.31;5058658;28;19917;-85
2022/01/13 09:19:19;;;;;;;;;;;;;;;10.77;69.51;104195.50;5076580;28;19923;-85
2022/01/13 09:21:46;;;;;;;;;;;;;;;11.64;66.51;104191.28;5077630;28;19963;-84
2022/01/13 09:24:13;;;;;;;;;;;;;;;11.14;66.00;104200.16;5059133;28;19916;-85
2022/01/13 09:26:39;;;;;;;;;;;;;;;11.82;66.32;104194.91;5064778;28;19967;-84
2022/01/13 09:29:05;;;;;;;;;;;;;;;10.85;69.29;104195.53;5063601;28;19939;-85
2022/01/13 09:31:31;;;;;;;;;;;;;;;11.21;69.38;104193.00;5061098;28;19923;-85
2022/01/13 09:33:57;;;;;;;;;;;;;;;11.23;69.48;104196.59;5061976;28;19920;-85
2022/01/13 09:36:22;;;;;;;;;;;;;;;10.70;71.22;104190.03;5050176;28;20449;-85
2022/01/13 09:38:47;;;;;;;;;;;;;;;11.24;70.66;104185.75;5078255;28;20255;-83
2022/01/13 09:41:14;;;;;;;;;;;;;;;10.61;70.69;104191.81;5079046;28;19920;-83
2022/01/13 09:43:42;;;;;;;;;;;;;;;11.47;69.12;104183.13;5078652;28;19927;-83
2022/01/13 09:46:08;;;;;;;;;;;;;;;11.70;66.46;104196.72;5078252;28;19999;-84
2022/01/13 09:48:33;;;;;;;;;;;;;;;10.96;68.00;104201.91;5060113;28;20001;-85
2022/01/13 09:50:58;;;;;;;;;;;;;;;10.29;71.93;104197.84;5060725;28;19959;-84
2022/01/13 09:53:23;;;;;;;;;;;;;;;11.33;70.01;104202.06;5060238;28;20389;-84
2022/01/13 09:55:49;;;;;;;;;;;;;;;10.82;71.63;104204.56;5060887;28;19962;-84
2022/01/13 09:58:14;;;;;;;;;;;;;;;11.13;69.07;104204.69;5063567;28;20389;-84
2022/01/13 10:00:40;;;;;;;;;;;;;;;11.62;67.66;104192.19;5081728;28;19968;-85
2022/01/13 10:03:12;;;;;;;;;;;;;;;11.46;67.61;104197.59;5080439;28;19960;-83
2022/01/13 10:05:46;;;;;;;;;;;;;;;11.47;67.61;104193.06;5060274;28;20381;-86
2022/01/13 10:08:11;;;;;;;;;;;;;;;11.03;70.50;104197.41;5060540;28;19923;-84
2022/01/13 10:10:36;;;;;;;;;;;;;;;11.02;69.93;104198.34;5060759;28;19920;-85
2022/01/13 10:13:04;;;;;;;;;;;;;;;11.60;68.47;104189.47;5061119;28;19925;-83
2022/01/13 10:18:35;;;;;;;;;;;;;;;11.26;70.24;104178.56;5078701;28;20385;-83
2022/01/13 10:21:04;;;;;;;;;;;;;;;11.91;67.64;104181.34;5060691;28;19916;-81
2022/01/13 10:23:29;;;;;;;;;;;;;;;12.43;64.77;104183.19;5060440;28;19917;-83
2022/01/13 10:25:54;;;;;;;;;;;;;;;11.47;67.23;104179.50;5059632;28;19939;-84
2022/01/13 10:28:21;;;;;;;;;;;;;;;11.25;70.69;104179.44;5060530;28;20268;-85
2022/01/13 10:30:48;;;;;;;;;;;;;;;11.53;68.97;104183.16;5059854;28;19962;-84
2022/01/13 10:33:18;;;;;;;;;;;;;;;11.25;69.85;104187.59;5076672;28;19920;-84
2022/01/13 10:35:44;;;;;;;;;;;;;;;11.29;70.42;104183.06;5060798;28;19920;-83
2022/01/13 10:38:09;;;;;;;;;;;;;;;12.33;66.78;104186.81;5062445;28;19924;-84
2022/01/13 10:40:40;;;;;;;;;;;;;;;11.65;68.04;104187.66;5059190;28;20017;-84
2022/01/13 10:43:06;;;;;;;;;;;;;;;11.78;66.28;104179.56;5077176;28;19924;-84
2022/01/13 10:45:47;;;;;;;;;;;;;;;11.30;69.06;104182.16;5059310;28;19917;-83
2022/01/13 10:48:17;;;;;;;;;;;;;;;11.31;69.32;104181.28;5078739;28;19916;-84
2022/01/13 10:50:59;;;;;;;;;;;;;;;12.14;67.47;104181.41;5061007;28;19920;-82
2022/01/13 10:53:27;;;;;;;;;;;;;;;12.94;64.46;104183.03;5059137;28;20011;-83
2022/01/13 10:56:00;;;;;;;;;;;;;;;11.66;68.05;104183.16;5059107;28;20355;-83
2022/01/13 10:58:27;;;;;;;;;;;;;;;11.52;69.78;104175.91;5060166;28;19986;-84
2022/01/13 11:00:53;;;;;;;;;;;;;;;12.00;67.25;104177.78;5058469;28;19916;-83
2022/01/13 11:03:20;;;;;;;;;;;;;;;12.08;68.04;104177.78;5059654;28;19916;-82
2022/01/13 11:05:47;;;;;;;;;;;;;;;12.61;63.09;104171.38;5059554;28;20298;-84
2022/01/13 11:08:18;;;;;;;;;;;;;;;11.96;67.76;104171.47;5059471;28;20002;-82
2022/01/13 11:10:49;;;;;;;;;;;;;;;12.06;66.17;104172.34;5059790;28;20377;-85
2022/01/13 11:13:19;;;;;;;;;;;;;;;12.48;65.28;104164.16;5059916;28;19924;-83
2022/01/13 11:15:49;;;;;;;;;;;;;;;11.99;67.13;104163.31;5061248;28;19947;-84
2022/01/13 11:18:16;;;;;;;;;;;;;;;12.54;65.59;104164.13;5061527;28;19923;-82
2022/01/13 11:20:41;;;;;;;;;;;;;;;12.63;64.10;104155.97;5060977;28;19943;-83
2022/01/13 11:23:07;;;;;;;;;;;;;;;12.32;64.93;104169.63;5061812;28;19916;-84
2022/01/13 11:25:34;;;;;;;;;;;;;;;12.20;66.40;104170.53;5061382;28;19901;-84
2022/01/13 11:27:59;;;;;;;;;;;;;;;11.65;67.65;104165.06;5059978;28;19924;-83
2022/01/13 11:30:26;;;;;;;;;;;;;;;11.81;67.26;104158.75;5059626;28;19946;-83
2022/01/13 11:32:51;;;;;;;;;;;;;;;12.04;67.72;104157.88;5059624;28;19905;-83
2022/01/13 11:35:26;;;;;;;;;;;;;;;11.22;70.06;104159.53;5077755;28;20294;-83
2022/01/13 11:37:52;;;;;;;;;;;;;;;11.96;67.83;104159.72;5060088;28;20011;-83
2022/01/13 11:40:26;;;;;;;;;;;;;;;12.54;65.94;104147.84;5076999;28;20404;-84
2022/01/13 11:42:51;;;;;;;;;;;;;;;12.13;67.08;104155.16;5059312;28;19924;-84
2022/01/13 11:45:17;;;;;;;;;;;;;;;11.84;68.22;104153.31;5059485;28;19923;-84
2022/01/13 11:47:42;;;;;;;;;;;;;;;11.88;67.67;104162.34;5057746;28;19923;-84
2022/01/13 11:50:21;;;;;;;;;;;;;;;12.20;68.63;104161.50;5059203;28;20027;-83
2022/01/13 11:52:53;;;;;;;;;;;;;;;12.10;69.02;104151.56;5059169;28;20384;-84
2022/01/13 11:55:24;;;;;;;;;;;;;;;11.61;68.41;104147.91;5059015;28;19951;-83
2022/01/13 11:57:50;;;;;;;;;;;;;;;11.89;69.25;104142.47;5076031;28;19919;-83
2022/01/13 12:00:22;;;;;;;;;;;;;;;12.31;67.27;104139.75;5059348;28;20007;-84
2022/01/13 12:02:48;;;;;;;;;;;;;;;12.54;65.64;104140.59;5059409;28;19923;-85
2022/01/13 12:05:18;;;;;;;;;;;;;;;11.64;68.44;104139.78;5057666;28;20015;-83
2022/01/13 12:07:44;;;;;;;;;;;;;;;11.05;72.40;104126.97;5057445;28;19916;-83
2022/01/13 12:10:28;;;;;;;;;;;;;;;12.33;66.82;104127.06;5058185;28;19924;-84
2022/01/13 12:12:54;;;;;;;;;;;;;;;12.85;65.38;104118.75;5059053;28;19951;-84
2022/01/13 12:15:21;;;;;;;;;;;;;;;11.53;69.08;104122.56;5076220;28;20370;-83
2022/01/13 12:17:47;;;;;;;;;;;;;;;11.25;70.03;104114.41;5059423;28;19923;-83
2022/01/13 12:20:25;;;;;;;;;;;;;;;12.33;66.63;104108.06;5059396;28;19923;-82
2022/01/13 12:23:01;;;;;;;;;;;;;;;11.59;69.87;104109.00;5059081;28;19924;-82
2022/01/13 12:25:33;;;;;;;;;;;;;;;12.41;66.41;104104.44;5059231;28;19929;-85
2022/01/13 12:27:59;;;;;;;;;;;;;;;12.97;64.77;104101.50;5058928;28;20370;-85
2022/01/13 12:30:26;;;;;;;;;;;;;;;12.27;65.60;104099.94;5075773;28;19916;-85
2022/01/13 12:32:58;;;;;;;;;;;;;;;11.58;68.74;104098.16;5059154;28;19916;-85
2022/01/13 12:35:41;;;;;;;;;;;;;;;11.40;68.58;104096.34;5059222;28;20015;-84
2022/01/13 12:38:09;;;;;;;;;;;;;;;11.24;70.52;104096.31;5058973;28;19970;-84
2022/01/13 12:41:03;;;;;;;;;;;;;;;11.29;70.54;104088.19;5075064;28;19920;-82
2022/01/13 12:43:37;;;;;;;;;;;;;;;11.79;66.72;104091.84;5052545;28;19976;-82
2022/01/13 12:46:03;;;;;;;;;;;;;;;11.98;66.53;104088.22;5053715;28;20298;-83
2022/01/13 12:48:29;;;;;;;;;;;;;;;12.15;66.81;104090.00;5054510;28;19917;-82
2022/01/13 12:50:55;;;;;;;;;;;;;;;11.19;69.38;104092.72;5054126;28;20336;-82
2022/01/13 12:53:25;;;;;;;;;;;;;;;12.01;68.13;104082.81;5054573;28;20375;-82
2022/01/13 12:55:56;;;;;;;;;;;;;;;11.97;68.69;104093.66;5052848;28;19917;-82
2022/01/13 12:58:22;;;;;;;;;;;;;;;11.57;68.25;104091.84;5054345;28;19917;-82
2022/01/13 13:00:47;;;;;;;;;;;;;;;11.69;69.19;104085.53;5056875;28;20293;-82
2022/01/13 13:03:13;;;;;;;;;;;;;;;11.18;70.08;104083.66;5072888;28;19925;-82
2022/01/13 13:05:44;;;;;;;;;;;;;;;11.99;69.40;104073.78;5058508;28;19924;-83